Time;durP1;ratioP1;P1;durP2;ratioP2;P2;SDS_P1;SDS_P2;PMS_P1;PMS_P2;Temp;Humidity;BMP_temperature;BMP_pressure;BME280_temperature;BME280_humidity;BME280_pressure;Samples;Min_cycle;Max_cycle;Signal;HPM_P1;HPM_P2
2022/12/08 00:01:14;;;;;;;159.27;88.43;;;;;;;1.76;100.00;101054.75;5054609;28;20036;-46
2022/12/08 00:03:40;;;;;;;153.00;89.40;;;;;;;1.75;100.00;101048.75;5053506;28;20527;-48
2022/12/08 00:11:39;;;;;;;146.55;85.10;;;;;;;1.76;100.00;101029.31;5054597;28;20094;-47
2022/12/08 00:14:04;;;;;;;145.82;86.22;;;;;;;1.75;100.00;101032.63;5054879;28;20021;-48
2022/12/08 00:16:29;;;;;;;146.32;84.57;;;;;;;1.76;100.00;101025.09;5053806;28;20037;-48
2022/12/08 00:18:55;;;;;;;139.02;83.15;;;;;;;1.78;100.00;101022.66;5054321;28;20469;-48
2022/12/08 00:21:20;;;;;;;151.45;83.70;;;;;;;1.78;100.00;101009.97;5054501;28;20040;-47
2022/12/08 00:23:45;;;;;;;144.65;80.53;;;;;;;1.80;100.00;101010.97;5053352;28;20098;-47
2022/12/08 00:26:10;;;;;;;145.45;80.15;;;;;;;1.83;100.00;101008.63;5054430;28;20488;-48
2022/12/08 00:28:36;;;;;;;149.93;83.47;;;;;;;1.84;100.00;101002.75;5054251;28;20017;-48
2022/12/08 00:31:09;;;;;;;139.57;80.50;;;;;;;1.85;100.00;101004.53;5053493;28;20431;-46
2022/12/08 00:33:34;;;;;;;156.80;87.13;;;;;;;1.87;100.00;101002.94;5054169;28;20036;-46
2022/12/08 00:36:08;;;;;;;130.20;76.05;;;;;;;1.90;100.00;101005.72;5054280;28;20021;-49
2022/12/08 00:38:33;;;;;;;134.73;79.57;;;;;;;1.90;100.00;101000.63;5052945;28;20025;-47
2022/12/08 00:40:58;;;;;;;131.60;75.90;;;;;;;1.91;100.00;100999.84;5054005;28;20083;-45
2022/12/08 00:43:24;;;;;;;133.75;75.45;;;;;;;1.92;100.00;101000.72;5054177;28;20052;-48
2022/12/08 00:45:49;;;;;;;132.90;71.38;;;;;;;1.92;100.00;100993.97;5053350;28;20372;-49
2022/12/08 00:48:14;;;;;;;123.97;70.63;;;;;;;1.92;100.00;100988.88;5053890;28;20028;-48
2022/12/08 00:50:39;;;;;;;137.10;72.35;;;;;;;1.92;100.00;100991.44;5053567;28;20524;-48
2022/12/08 00:53:05;;;;;;;126.57;73.35;;;;;;;1.93;100.00;100987.25;5053769;28;20025;-47
2022/12/08 00:55:30;;;;;;;121.03;72.07;;;;;;;1.93;100.00;100993.19;5053625;28;20032;-45
2022/12/08 00:57:55;;;;;;;127.75;70.53;;;;;;;1.94;100.00;100991.56;5053519;28;20018;-48
2022/12/08 01:00:21;;;;;;;121.93;68.80;;;;;;;1.95;100.00;100981.50;5053208;28;20516;-47
2022/12/08 01:02:46;;;;;;;132.50;71.65;;;;;;;1.96;100.00;100980.72;5053312;28;20025;-49
2022/12/08 01:05:11;;;;;;;122.28;68.85;;;;;;;1.97;100.00;100979.03;5051863;28;20040;-47
2022/12/08 01:07:36;;;;;;;124.95;71.13;;;;;;;1.98;100.00;100974.06;5053395;28;20031;-48
2022/12/08 01:10:02;;;;;;;118.72;69.30;;;;;;;1.98;100.00;100976.59;5053926;28;20025;-46
2022/12/08 01:12:29;;;;;;;121.53;69.72;;;;;;;1.99;100.00;100969.88;5052658;28;20032;-48
2022/12/08 01:14:54;;;;;;;123.72;70.28;;;;;;;2.00;100.00;100969.06;5053347;28;20029;-47
2022/12/08 01:17:19;;;;;;;133.25;71.25;;;;;;;1.98;100.00;100971.50;5053420;28;20033;-47
2022/12/08 01:19:45;;;;;;;120.90;68.95;;;;;;;2.00;100.00;100974.16;5052362;28;20026;-49
2022/12/08 01:22:10;;;;;;;124.53;68.03;;;;;;;2.02;100.00;100962.44;5053393;28;20021;-48
2022/12/08 01:24:35;;;;;;;120.47;69.00;;;;;;;2.03;100.00;100968.38;5052935;28;20388;-48
2022/12/08 01:27:00;;;;;;;124.70;70.38;;;;;;;2.01;100.00;100965.75;5052775;28;20028;-49
2022/12/08 01:29:26;;;;;;;126.63;68.18;;;;;;;2.00;100.00;100963.97;5053326;28;20438;-49
2022/12/08 01:31:52;;;;;;;117.63;65.90;;;;;;;2.01;100.00;100965.75;5053130;28;20033;-46
2022/12/08 01:34:17;;;;;;;115.68;66.70;;;;;;;2.02;100.00;100971.72;5052502;28;20071;-48
2022/12/08 01:36:43;;;;;;;122.32;67.03;;;;;;;2.02;100.00;100969.19;5052814;28;20029;-47
2022/12/08 01:39:14;;;;;;;115.05;65.35;;;;;;;2.02;100.00;100979.34;5052989;28;20100;-48
2022/12/08 01:41:42;;;;;;;117.13;63.65;;;;;;;2.02;100.00;100966.66;5051959;28;20447;-47
2022/12/08 01:44:07;;;;;;;116.13;63.13;;;;;;;2.03;100.00;100968.38;5053077;28;20105;-47
2022/12/08 01:46:34;;;;;;;110.30;61.80;;;;;;;2.03;100.00;100969.28;5052519;28;20092;-47
2022/12/08 01:49:00;;;;;;;110.97;61.28;;;;;;;2.03;100.00;100960.75;5052882;28;20033;-48
2022/12/08 01:51:26;;;;;;;104.00;58.22;;;;;;;2.03;100.00;100955.69;5053095;28;20028;-45
2022/12/08 01:53:51;;;;;;;106.93;59.97;;;;;;;2.02;100.00;100951.41;5052257;28;20420;-47
2022/12/08 01:56:29;;;;;;;103.85;59.40;;;;;;;2.04;100.00;100954.91;5052481;28;20029;-48
2022/12/08 01:58:55;;;;;;;102.35;57.47;;;;;;;2.02;100.00;100954.81;5052443;28;20035;-46
2022/12/08 02:01:20;;;;;;;112.57;59.78;;;;;;;2.01;100.00;100944.53;5052344;28;20040;-44
2022/12/08 02:03:57;;;;;;;108.03;59.00;;;;;;;2.03;100.00;100942.97;5051914;28;20481;-48
2022/12/08 02:06:23;;;;;;;111.50;58.10;;;;;;;2.00;100.00;100942.78;5052671;28;20472;-47
2022/12/08 02:08:49;;;;;;;109.30;58.67;;;;;;;2.01;100.00;100934.38;5051758;28;20111;-47
2022/12/08 02:11:15;;;;;;;111.32;60.17;;;;;;;1.98;100.00;100930.84;5052756;28;20021;-48
2022/12/08 02:13:43;;;;;;;100.60;57.85;;;;;;;1.99;100.00;100931.75;5052236;28;20024;-44
2022/12/08 02:16:34;;;;;;;106.30;56.67;;;;;;;1.99;100.00;100939.38;5051876;28;20087;-49
2022/12/08 02:19:42;;;;;;;102.00;56.40;;;;;;;2.00;100.00;100930.06;5057101;28;20021;-49
2022/12/08 02:22:16;;;;;;;106.25;56.35;;;;;;;1.98;100.00;100932.50;5056644;28;20120;-46
2022/12/08 02:25:02;;;;;;;96.47;55.75;;;;;;;1.98;100.00;100928.28;5055924;28;20059;-47
2022/12/08 02:27:45;;;;;;;96.85;52.33;;;;;;;1.96;100.00;100912.09;5056924;28;20028;-49
2022/12/08 02:30:25;;;;;;;98.72;53.08;;;;;;;1.97;100.00;100913.81;5055853;28;20488;-47
2022/12/08 02:33:09;;;;;;;97.68;51.13;;;;;;;1.97;100.00;100912.94;5056224;28;20087;-46
2022/12/08 02:35:54;;;;;;;91.40;49.83;;;;;;;1.96;100.00;100896.84;5056177;28;20357;-48
2022/12/08 02:38:43;;;;;;;101.35;49.70;;;;;;;1.96;100.00;100899.38;5056071;28;20036;-48
2022/12/08 02:41:44;;;;;;;85.47;47.22;;;;;;;1.95;100.00;100891.63;5056289;28;20472;-48
2022/12/08 02:44:32;;;;;;;79.38;43.80;;;;;;;1.96;100.00;100891.75;5050951;28;20392;-48
2022/12/08 02:47:03;;;;;;;77.13;43.05;;;;;;;1.95;100.00;100894.16;5056512;28;20032;-48
2022/12/08 02:49:30;;;;;;;86.40;44.42;;;;;;;1.93;100.00;100885.56;5056310;28;20032;-47
2022/12/08 02:52:12;;;;;;;73.32;37.40;;;;;;;1.96;100.00;100883.22;5055204;28;20020;-48
2022/12/08 02:54:45;;;;;;;65.28;35.63;;;;;;;1.95;100.00;100884.91;5056091;28;20036;-48
2022/12/08 02:57:51;;;;;;;59.65;34.90;;;;;;;1.97;100.00;100883.31;5056131;28;20021;-48
2022/12/08 03:00:23;;;;;;;61.22;32.97;;;;;;;1.95;100.00;100869.66;5055981;28;20060;-47
2022/12/08 03:02:57;;;;;;;61.38;30.80;;;;;;;1.97;100.00;100867.19;5055778;28;20025;-47
2022/12/08 03:05:38;;;;;;;58.80;31.45;;;;;;;1.98;100.00;100874.91;5055266;28;20025;-49
2022/12/08 03:08:21;;;;;;;59.00;31.40;;;;;;;1.98;100.00;100874.06;5056037;28;20029;-47
2022/12/08 03:11:00;;;;;;;53.00;29.92;;;;;;;2.01;100.00;100883.53;5055373;28;20436;-45
2022/12/08 03:13:33;;;;;;;59.65;29.88;;;;;;;2.02;100.00;100885.31;5055398;28;20020;-48
2022/12/08 03:16:01;;;;;;;59.75;29.85;;;;;;;2.04;100.00;100884.63;5056051;28;20017;-49
2022/12/08 03:18:32;;;;;;;57.50;29.38;;;;;;;2.05;100.00;100881.28;5055478;28;20472;-48
2022/12/08 03:20:59;;;;;;;54.33;29.17;;;;;;;2.06;100.00;100877.09;5055048;28;20037;-47
2022/12/08 03:23:25;;;;;;;54.70;30.02;;;;;;;2.08;100.00;100876.41;5055502;28;20059;-47
2022/12/08 03:25:59;;;;;;;61.28;31.20;;;;;;;2.11;100.00;100875.72;5054693;28;20037;-47
2022/12/08 03:28:24;;;;;;;54.30;30.00;;;;;;;2.11;100.00;100875.72;5054401;28;20464;-48
2022/12/08 03:30:55;;;;;;;60.70;32.50;;;;;;;2.09;100.00;100862.00;5055252;28;20078;-47
2022/12/08 03:33:25;;;;;;;59.67;31.88;;;;;;;2.13;100.00;100871.59;5054634;28;20523;-47
2022/12/08 03:35:52;;;;;;;63.05;32.45;;;;;;;2.11;100.00;100852.84;5055098;28;20476;-46
2022/12/08 03:38:18;;;;;;;61.65;34.00;;;;;;;2.12;100.00;100852.06;5055522;28;20025;-48
2022/12/08 03:41:16;;;;;;;60.85;33.17;;;;;;;2.11;100.00;100843.53;5054264;28;20032;-47
2022/12/08 03:43:29;;;;;;;62.33;34.15;;;;;;;2.09;100.00;100828.97;5055196;28;20461;-47
2022/12/08 03:45:54;;;;;;;67.10;34.83;;;;;;;2.09;100.00;100832.41;5054704;28;20025;-47
2022/12/08 03:48:19;;;;;;;66.22;34.45;;;;;;;2.08;100.00;100835.72;5054499;28;20078;-46
2022/12/08 03:50:44;;;;;;;69.90;35.20;;;;;;;2.10;100.00;100828.19;5054527;28;20025;-45
2022/12/08 03:53:10;;;;;;;73.28;38.33;;;;;;;2.10;100.00;100828.19;5054964;28;20476;-49
2022/12/08 03:55:35;;;;;;;79.18;42.03;;;;;;;2.11;100.00;100829.97;5053994;28;20021;-48
2022/12/08 03:58:00;;;;;;;77.00;41.88;;;;;;;2.09;100.00;100819.69;5055098;28;20029;-49
2022/12/08 04:00:26;;;;;;;95.53;44.45;;;;;;;2.10;100.00;100830.72;5054589;28;20075;-48
2022/12/08 04:02:52;;;;;;;96.60;48.30;;;;;;;2.10;100.00;100825.66;5053786;28;20037;-49
2022/12/08 04:05:17;;;;;;;109.25;53.47;;;;;;;2.11;100.00;100828.28;5055062;28;20032;-48
2022/12/08 04:07:42;;;;;;;110.07;53.28;;;;;;;2.11;100.00;100814.69;5054383;28;20116;-44
2022/12/08 04:10:08;;;;;;;125.40;58.38;;;;;;;2.13;100.00;100818.19;5054203;28;20025;-48
2022/12/08 04:12:33;;;;;;;123.10;59.00;;;;;;;2.13;100.00;100818.19;5054253;28;20539;-48
2022/12/08 04:14:58;;;;;;;136.32;63.65;;;;;;;2.14;100.00;100809.78;5054428;28;20025;-45
2022/12/08 04:17:24;;;;;;;138.15;65.65;;;;;;;2.14;100.00;100820.88;5054277;28;20029;-47
2022/12/08 04:19:49;;;;;;;148.45;68.22;;;;;;;2.15;100.00;100811.56;5054461;28;20417;-45
2022/12/08 04:22:14;;;;;;;153.45;72.25;;;;;;;2.14;100.00;100812.34;5053747;28;20057;-49
2022/12/08 04:24:39;;;;;;;157.18;72.82;;;;;;;2.15;100.00;100801.38;5054241;28;20423;-47
2022/12/08 04:27:05;;;;;;;164.20;72.55;;;;;;;2.14;100.00;100800.53;5054392;28;20029;-48
2022/12/08 04:29:30;;;;;;;159.75;74.50;;;;;;;2.13;100.00;100796.22;5053566;28;20473;-45
2022/12/08 04:31:55;;;;;;;159.00;73.28;;;;;;;2.14;100.00;100789.47;5054077;28;20024;-47
2022/12/08 04:34:20;;;;;;;163.13;72.35;;;;;;;2.16;100.00;100799.72;5054240;28;20036;-48
2022/12/08 04:36:46;;;;;;;152.00;70.35;;;;;;;2.16;100.00;100798.06;5053414;28;20125;-48
2022/12/08 04:39:11;;;;;;;157.27;70.63;;;;;;;2.17;100.00;100804.91;5054163;28;20056;-48
2022/12/08 04:41:36;;;;;;;152.93;70.20;;;;;;;2.16;100.00;100808.25;5053778;28;20110;-46
2022/12/08 04:44:02;;;;;;;146.68;67.75;;;;;;;2.17;100.00;100802.38;5053413;28;20035;-47
2022/12/08 04:46:27;;;;;;;150.20;66.20;;;;;;;2.15;100.00;100803.94;5054017;28;20384;-45
2022/12/08 04:48:52;;;;;;;133.50;60.67;;;;;;;2.15;100.00;100796.31;5053727;28;20020;-47
2022/12/08 04:51:18;;;;;;;135.40;58.53;;;;;;;2.14;100.00;100794.53;5053359;28;20027;-47
2022/12/08 04:53:45;;;;;;;122.35;56.40;;;;;;;2.14;100.00;100794.53;5053782;28;20108;-49
2022/12/08 04:56:12;;;;;;;123.00;54.30;;;;;;;2.12;100.00;100791.03;5053642;28;20387;-48
2022/12/08 04:58:37;;;;;;;112.82;53.33;;;;;;;2.12;100.00;100786.81;5052969;28;20056;-46
2022/12/08 05:01:02;;;;;;;114.68;50.20;;;;;;;2.12;100.00;100788.50;5053725;28;20064;-48
2022/12/08 05:03:28;;;;;;;100.93;50.88;;;;;;;2.10;100.00;100792.59;5053304;28;20370;-49
2022/12/08 05:05:53;;;;;;;104.88;50.80;;;;;;;2.11;100.00;100794.38;5052922;28;20032;-49
2022/12/08 05:08:18;;;;;;;115.53;53.45;;;;;;;2.10;100.00;100792.59;5053769;28;20074;-48
2022/12/08 05:10:44;;;;;;;104.40;50.65;;;;;;;2.10;100.00;100800.22;5053099;28;20028;-46
2022/12/08 05:13:09;;;;;;;100.50;47.55;;;;;;;2.11;100.00;100802.00;5052985;28;20391;-47
2022/12/08 05:15:34;;;;;;;102.63;46.95;;;;;;;2.11;100.00;100800.31;5053210;28;20032;-47
2022/12/08 05:17:59;;;;;;;105.03;47.97;;;;;;;2.13;100.00;100802.94;5053194;28;20025;-47
2022/12/08 05:20:25;;;;;;;100.45;43.70;;;;;;;2.08;100.00;100810.31;5052809;28;20020;-47
2022/12/08 05:22:50;;;;;;;68.22;34.97;;;;;;;2.06;100.00;100805.91;5053308;28;20262;-46
2022/12/08 05:25:16;;;;;;;61.85;31.98;;;;;;;2.02;100.00;100811.59;5053144;28;20021;-47
2022/12/08 05:27:41;;;;;;;57.63;30.77;;;;;;;2.01;100.00;100807.28;5052567;28;20388;-46
2022/12/08 05:30:07;;;;;;;53.33;25.23;;;;;;;1.96;100.00;100805.31;5053285;28;20403;-48
2022/12/08 05:32:32;;;;;;;45.55;23.70;;;;;;;1.97;100.00;100801.97;5052046;28;20028;-48
2022/12/08 05:34:58;;;;;;;30.10;17.50;;;;;;;1.92;100.00;100800.81;5053348;28;20028;-47
2022/12/08 05:37:23;;;;;;;27.85;15.95;;;;;;;1.88;100.00;100796.31;5053263;28;20087;-44
2022/12/08 05:39:48;;;;;;;31.60;15.48;;;;;;;1.85;100.00;100801.22;5052203;28;20033;-46
2022/12/08 05:42:13;;;;;;;27.23;16.48;;;;;;;1.83;100.00;100797.69;5053134;28;20024;-47
2022/12/08 05:44:39;;;;;;;33.28;17.80;;;;;;;1.83;100.00;100797.69;5052789;28;20040;-45
2022/12/08 05:47:04;;;;;;;35.22;17.80;;;;;;;1.79;100.00;100785.56;5052157;28;20021;-48
2022/12/08 05:49:29;;;;;;;30.75;16.98;;;;;;;1.78;100.00;100784.69;5053087;28;20021;-44
2022/12/08 05:51:54;;;;;;;29.33;17.33;;;;;;;1.80;100.00;100784.78;5052619;28;20076;-48
2022/12/08 05:54:20;;;;;;;27.90;17.15;;;;;;;1.77;100.00;100780.41;5052229;28;20034;-47
2022/12/08 05:56:45;;;;;;;37.25;18.17;;;;;;;1.76;100.00;100778.63;5052623;28;20032;-47
2022/12/08 05:59:10;;;;;;;30.20;18.75;;;;;;;1.75;100.00;100776.00;5052542;28;20064;-45
2022/12/08 06:01:35;;;;;;;36.10;19.85;;;;;;;1.75;100.00;100781.94;5051838;28;20033;-48
2022/12/08 06:04:02;;;;;;;38.33;19.00;;;;;;;1.74;100.00;100781.84;5052565;28;20045;-45
2022/12/08 06:06:28;;;;;;;38.22;19.38;;;;;;;1.74;100.00;100771.69;5052530;28;20032;-47
2022/12/08 06:08:53;;;;;;;36.63;19.08;;;;;;;1.75;100.00;100771.78;5051933;28;20021;-45
2022/12/08 06:11:27;;;;;;;34.67;18.02;;;;;;;1.74;100.00;100766.59;5052840;28;20052;-49
2022/12/08 06:13:53;;;;;;;32.35;16.92;;;;;;;1.74;100.00;100762.44;5052051;28;20562;-46
2022/12/08 06:16:18;;;;;;;25.75;15.25;;;;;;;1.73;100.00;100765.75;5051964;28;20061;-47
2022/12/08 06:18:44;;;;;;;26.30;14.77;;;;;;;1.74;100.00;100770.06;5052495;28;20111;-48
2022/12/08 06:21:13;;;;;;;28.88;15.18;;;;;;;1.76;100.00;100775.22;5052354;28;20075;-47
2022/12/08 06:23:38;;;;;;;23.17;13.88;;;;;;;1.75;100.00;100768.38;5051696;28;20021;-44
2022/12/08 06:26:07;;;;;;;26.63;14.68;;;;;;;1.73;100.00;100765.75;5052600;28;20025;-48
2022/12/08 06:28:33;;;;;;;30.33;16.23;;;;;;;1.74;100.00;100764.06;5051885;28;20111;-45
2022/12/08 06:31:04;;;;;;;35.75;16.92;;;;;;;1.74;100.00;100766.59;5051892;28;20027;-48
2022/12/08 06:33:30;;;;;;;41.13;19.45;;;;;;;1.74;100.00;100756.44;5052542;28;20032;-48
2022/12/08 06:35:57;;;;;;;43.97;19.55;;;;;;;1.73;100.00;100760.66;5051772;28;20025;-45
2022/12/08 06:38:23;;;;;;;28.30;14.73;;;;;;;1.74;100.00;100759.88;5052440;28;20036;-48
2022/12/08 06:40:55;;;;;;;29.33;15.10;;;;;;;1.73;100.00;100762.31;5052111;28;20419;-44
2022/12/08 06:43:20;;;;;;;33.60;15.20;;;;;;;1.74;100.00;100759.88;5051573;28;20051;-46
2022/12/08 06:45:46;;;;;;;29.08;14.93;;;;;;;1.73;100.00;100757.22;5052276;28;20051;-45
2022/12/08 06:48:11;;;;;;;34.28;15.48;;;;;;;1.73;100.00;100764.84;5052501;28;20083;-47
2022/12/08 06:50:36;;;;;;;30.90;14.77;;;;;;;1.72;100.00;100763.09;5051298;28;20028;-48
2022/12/08 06:53:02;;;;;;;28.17;14.70;;;;;;;1.70;100.00;100757.91;5052397;28;20541;-47
2022/12/08 06:55:27;;;;;;;32.25;15.68;;;;;;;1.71;100.00;100761.34;5052067;28;20464;-48
2022/12/08 06:57:53;;;;;;;33.75;16.58;;;;;;;1.69;100.00;100763.78;5051304;28;20021;-49
2022/12/08 07:00:18;;;;;;;31.45;15.85;;;;;;;1.69;100.00;100758.72;5052138;28;20069;-45
2022/12/08 07:02:44;;;;;;;34.20;16.90;;;;;;;1.70;100.00;100759.56;5052691;28;20131;-47
2022/12/08 07:05:09;;;;;;;32.30;17.35;;;;;;;1.68;100.00;100758.59;5055766;28;20468;-45
2022/12/08 07:07:34;;;;;;;29.05;17.63;;;;;;;1.68;100.00;100761.13;5055609;28;20112;-47
2022/12/08 07:09:59;;;;;;;34.22;19.05;;;;;;;1.68;100.00;100756.03;5055670;28;20029;-48
2022/12/08 07:12:25;;;;;;;37.13;19.25;;;;;;;1.69;100.00;100760.34;5055154;28;20021;-44
2022/12/08 07:14:50;;;;;;;32.50;18.23;;;;;;;1.70;100.00;100765.53;5055713;28;20032;-47
2022/12/08 07:17:15;;;;;;;42.05;19.80;;;;;;;1.69;100.00;100765.44;5055753;28;20108;-45
2022/12/08 07:19:40;;;;;;;40.40;19.63;;;;;;;1.69;100.00;100762.91;5055052;28;20108;-46
2022/12/08 07:22:06;;;;;;;32.90;19.48;;;;;;;1.69;100.00;100752.72;5055579;28;20039;-46
2022/12/08 07:24:32;;;;;;;31.85;19.35;;;;;;;1.69;100.00;100763.78;5055223;28;20033;-45
2022/12/08 07:26:57;;;;;;;33.55;19.73;;;;;;;1.69;100.00;100757.81;5054874;28;20021;-46
2022/12/08 07:29:22;;;;;;;33.78;19.25;;;;;;;1.70;100.00;100759.56;5055650;28;20032;-46
2022/12/08 07:31:48;;;;;;;31.65;19.13;;;;;;;1.71;100.00;100752.03;5055088;28;20464;-46
2022/12/08 07:34:13;;;;;;;37.70;20.33;;;;;;;1.73;100.00;100757.22;5054821;28;20029;-48
2022/12/08 07:36:39;;;;;;;39.80;21.17;;;;;;;1.76;100.00;100757.44;5055063;28;20078;-45
2022/12/08 07:39:04;;;;;;;41.83;21.27;;;;;;;1.76;100.00;100755.75;5054524;28;20028;-44
2022/12/08 07:41:29;;;;;;;36.40;22.45;;;;;;;1.77;100.00;100754.09;5055053;28;20033;-47
2022/12/08 07:43:55;;;;;;;44.08;23.45;;;;;;;1.76;100.00;100759.97;5054728;28;20108;-44
2022/12/08 07:46:23;;;;;;;48.28;23.65;;;;;;;1.76;100.00;100759.97;5054219;28;20557;-46
2022/12/08 07:48:49;;;;;;;48.60;25.10;;;;;;;1.77;100.00;100757.53;5055052;28;20029;-46
2022/12/08 07:51:15;;;;;;;44.13;25.40;;;;;;;1.77;100.00;100769.34;5054978;28;20028;-46
2022/12/08 07:53:43;;;;;;;48.63;26.27;;;;;;;1.77;100.00;100766.78;5054067;28;20025;-45
2022/12/08 07:56:08;;;;;;;;;;;;;;;1.84;100.00;100774.03;5055335;28;20021;-44
2022/12/08 07:58:34;;;;;;;50.38;28.15;;;;;;;1.74;100.00;100764.97;5054478;28;19919;-47
2022/12/08 08:00:59;;;;;;;49.53;28.33;;;;;;;1.76;100.00;100757.44;5054098;28;20468;-47
2022/12/08 08:03:24;;;;;;;54.65;30.35;;;;;;;1.79;100.00;100771.19;5054595;28;20119;-48
2022/12/08 08:05:50;;;;;;;49.08;30.17;;;;;;;1.79;100.00;100765.25;5054337;28;20114;-47
2022/12/08 08:08:16;;;;;;;51.90;30.73;;;;;;;1.80;100.00;100772.09;5054215;28;20028;-47
2022/12/08 08:10:41;;;;;;;57.85;31.63;;;;;;;1.81;100.00;100769.63;5054366;28;20056;-48
2022/12/08 08:13:07;;;;;;;48.08;27.88;;;;;;;1.81;100.00;100761.16;5054436;28;20174;-47
2022/12/08 08:15:32;;;;;;;46.55;25.17;;;;;;;1.81;100.00;100763.69;5053078;28;20092;-46
2022/12/08 08:17:58;;;;;;;42.22;22.77;;;;;;;1.79;100.00;100763.56;5054744;28;20482;-45
2022/12/08 08:20:23;;;;;;;37.92;21.10;;;;;;;1.79;100.00;100770.31;5054333;28;20021;-49
2022/12/08 08:22:50;;;;;;;35.63;20.10;;;;;;;1.76;100.00;100770.13;5054054;28;20051;-44
2022/12/08 08:25:16;;;;;;;37.08;22.13;;;;;;;1.76;100.00;100772.69;5054409;28;20116;-49
2022/12/08 08:27:42;;;;;;;31.10;18.45;;;;;;;1.74;100.00;100770.06;5053939;28;20056;-46
2022/12/08 08:30:09;;;;;;;33.20;18.48;;;;;;;1.74;100.00;100776.78;5054009;28;20070;-48
2022/12/08 08:32:35;;;;;;;33.60;17.70;;;;;;;1.72;100.00;100778.34;5054099;28;20040;-46
2022/12/08 08:35:00;;;;;;;32.00;17.92;;;;;;;1.71;100.00;100774.03;5054081;28;20025;-45
2022/12/08 08:37:26;;;;;;;33.15;18.45;;;;;;;1.71;100.00;100774.03;5053883;28;20108;-47
2022/12/08 08:39:51;;;;;;;29.20;18.25;;;;;;;1.67;100.00;100767.88;5054305;28;20475;-47
2022/12/08 08:42:16;;;;;;;30.83;18.48;;;;;;;1.67;100.00;100774.63;5053375;28;20118;-47
2022/12/08 08:44:42;;;;;;;31.13;18.13;;;;;;;1.63;100.00;100779.50;5053927;28;20025;-45
2022/12/08 08:47:07;;;;;;;33.13;18.30;;;;;;;1.60;100.00;100771.69;5053560;28;20392;-48
2022/12/08 08:49:33;;;;;;;28.73;16.08;;;;;;;1.59;100.00;100775.00;5052993;28;20124;-44
2022/12/08 08:51:58;;;;;;;23.35;14.95;;;;;;;1.56;100.00;100773.94;5053903;28;20044;-44
2022/12/08 08:54:23;;;;;;;37.28;18.80;;;;;;;1.56;100.00;100782.44;5053678;28;20074;-46
2022/12/08 08:56:49;;;;;;;30.45;16.88;;;;;;;1.56;100.00;100777.38;5052717;28;20052;-46
2022/12/08 08:59:14;;;;;;;28.55;16.88;;;;;;;1.57;100.00;100774.03;5053911;28;20359;-46
2022/12/08 09:01:39;;;;;;;28.58;16.60;;;;;;;1.56;100.00;100773.94;5053282;28;20384;-45
2022/12/08 09:04:04;;;;;;;30.75;15.30;;;;;;;1.56;100.00;100771.38;5053032;28;20385;-47
2022/12/08 09:06:30;;;;;;;27.20;15.38;;;;;;;1.55;100.00;100772.16;5053774;28;20063;-46
2022/12/08 09:08:55;;;;;;;24.13;14.68;;;;;;;1.59;100.00;100771.59;5053210;28;20102;-47
2022/12/08 09:11:24;;;;;;;27.77;15.63;;;;;;;1.59;100.00;100764.84;5052966;28;20063;-47
2022/12/08 09:13:50;;;;;;;28.85;14.75;;;;;;;1.60;100.00;100765.72;5053056;28;20403;-48
2022/12/08 09:16:16;;;;;;;30.17;15.70;;;;;;;1.66;100.00;100772.88;5053222;28;20025;-47
2022/12/08 09:18:42;;;;;;;31.70;16.00;;;;;;;1.73;100.00;100775.00;5052612;28;20035;-48
2022/12/08 09:21:13;;;;;;;26.83;14.88;;;;;;;1.72;100.00;100766.50;5053283;28;20439;-48
2022/12/08 09:23:39;;;;;;;27.33;14.75;;;;;;;1.77;100.00;100770.22;5052763;28;20096;-46
2022/12/08 09:26:05;;;;;;;23.48;15.30;;;;;;;1.80;100.00;100767.00;5052137;28;20100;-48
2022/12/08 09:28:31;;;;;;;24.95;14.05;;;;;;;1.86;100.00;100759.78;5053412;28;20038;-44
2022/12/08 09:30:56;;;;;;;24.58;14.60;;;;;;;1.91;100.00;100767.66;5053426;28;20104;-47
2022/12/08 09:33:22;;;;;;;22.55;13.70;;;;;;;1.92;100.00;100762.69;5052721;28;20116;-46
2022/12/08 09:35:47;;;;;;;31.65;15.50;;;;;;;1.93;100.00;100764.44;5052776;28;20024;-46
2022/12/08 09:38:12;;;;;;;26.20;15.65;;;;;;;2.01;100.00;100761.53;5052790;28;20037;-47
2022/12/08 09:40:47;;;;;;;29.65;18.08;;;;;;;2.01;100.00;100762.38;5052391;28;20037;-48
2022/12/08 09:43:24;;;;;;;30.10;15.65;;;;;;;2.06;100.00;100760.13;5053194;28;20052;-46
2022/12/08 09:45:50;;;;;;;28.50;15.17;;;;;;;2.00;100.00;100767.38;5051955;28;20056;-48
2022/12/08 09:48:23;;;;;;;25.52;15.43;;;;;;;1.99;100.00;100758.88;5052868;28;20758;-49
2022/12/08 09:50:54;;;;;;;29.40;15.70;;;;;;;1.96;100.00;100761.22;5052348;28;20108;-46
2022/12/08 09:53:41;;;;;;;34.60;16.25;;;;;;;2.02;100.00;100760.75;5052499;28;20025;-48
2022/12/08 09:56:21;;;;;;;26.73;15.75;;;;;;;2.05;100.00;100759.25;5053000;28;20104;-48
2022/12/08 09:58:52;;;;;;;28.20;14.65;;;;;;;2.03;100.00;100760.84;5052339;28;20021;-47
2022/12/08 10:01:20;;;;;;;28.60;15.35;;;;;;;2.07;100.00;100761.91;5052126;28;20040;-44
2022/12/08 10:03:45;;;;;;;30.45;14.60;;;;;;;2.05;100.00;100759.25;5052420;28;20049;-47
2022/12/08 10:06:19;;;;;;;31.83;15.50;;;;;;;2.07;100.00;100757.69;5052423;28;20025;-46
2022/12/08 10:09:23;;;;;;;31.27;13.95;;;;;;;2.07;100.00;100760.22;5051703;28;20028;-46
2022/12/08 10:12:16;;;;;;;33.15;15.35;;;;;;;2.09;100.00;100755.22;5051975;28;20021;-48
2022/12/08 10:14:43;;;;;;;28.67;14.05;;;;;;;2.05;100.00;100749.06;5051660;28;20538;-49
2022/12/08 10:17:16;;;;;;;38.00;16.17;;;;;;;2.05;100.00;100743.13;5052807;28;20021;-48
2022/12/08 10:19:43;;;;;;;32.35;16.25;;;;;;;2.08;100.00;100745.84;5052221;28;20060;-47
2022/12/08 10:22:20;;;;;;;35.65;18.75;;;;;;;2.06;100.00;100745.75;5051833;28;20029;-46
2022/12/08 10:24:54;;;;;;;35.08;17.70;;;;;;;2.08;100.00;100739.13;5052220;28;20357;-45
2022/12/08 10:27:20;;;;;;;35.50;17.95;;;;;;;2.10;100.00;100736.66;5052313;28;20484;-48
2022/12/08 10:29:45;;;;;;;42.35;21.40;;;;;;;2.11;100.00;100728.25;5051594;28;20044;-45
2022/12/08 10:32:19;;;;;;;36.08;20.42;;;;;;;2.14;100.00;100730.97;5052404;28;20032;-46
2022/12/08 10:35:05;;;;;;;44.70;23.58;;;;;;;2.16;100.00;100736.16;5052026;28;20067;-48
2022/12/08 10:37:31;;;;;;;53.60;26.52;;;;;;;2.16;100.00;100728.53;5053243;28;20047;-44
2022/12/08 10:40:08;;;;;;;47.75;26.55;;;;;;;2.16;100.00;100734.50;5056088;28;20464;-47
2022/12/08 10:42:44;;;;;;;57.25;29.70;;;;;;;2.20;100.00;100723.72;5055627;28;20028;-48
2022/12/08 10:45:17;;;;;;;54.53;30.45;;;;;;;2.21;100.00;100720.41;5056618;28;20033;-48
2022/12/08 10:47:57;;;;;;;60.85;34.72;;;;;;;2.23;100.00;100723.91;5055945;28;20036;-45
2022/12/08 10:50:40;;;;;;;77.50;36.78;;;;;;;2.27;100.00;100720.78;5055859;28;20106;-47
2022/12/08 10:53:08;;;;;;;82.75;43.20;;;;;;;2.33;100.00;100724.50;5056251;28;20033;-47
2022/12/08 10:55:41;;;;;;;92.25;48.55;;;;;;;2.35;100.00;100725.44;5055482;28;20476;-48
2022/12/08 10:58:41;;;;;;;97.90;52.22;;;;;;;2.39;100.00;100719.75;5055689;28;20045;-48
2022/12/08 11:01:25;;;;;;;124.47;60.92;;;;;;;2.37;100.00;100721.34;5055632;28;20021;-48
2022/12/08 11:03:54;;;;;;;146.57;71.57;;;;;;;2.39;100.00;100729.94;5054965;28;20055;-47
2022/12/08 11:06:29;;;;;;;154.13;78.28;;;;;;;2.38;100.00;100723.09;5055985;28;20468;-48
2022/12/08 11:08:57;;;;;;;131.02;65.28;;;;;;;2.34;100.00;100721.13;5055770;28;20036;-47
2022/12/08 11:11:56;;;;;;;124.70;61.45;;;;;;;2.30;100.00;100715.88;5055237;28;20025;-47
2022/12/08 11:14:31;;;;;;;137.15;64.82;;;;;;;2.24;100.00;100720.59;5055400;28;20066;-48
2022/12/08 11:17:08;;;;;;;143.52;73.95;;;;;;;2.22;100.00;100712.00;5055657;28;20037;-50
2022/12/08 11:19:39;;;;;;;148.57;71.60;;;;;;;2.20;100.00;100710.16;5055465;28;20033;-48